Aviation Digital Data Service (ADDS)

Output produced by TAFs form (0436 UTC 03 September 2014)
found at http://aviationweather.gov/adds/tafs/
 
KFMN 022325Z 0300/0324 27010KT P6SM SCT250 
     FM030200 VRB06KT P6SM SKC 
     FM030700 08007KT P6SM SKC 
     FM031600 VRB06KT P6SM SKC 
     FM032000 25008KT P6SM FEW090